sensor_id;sensor_type;location;lat;lon;timestamp;P1;durP1;ratioP1;P2;durP2;ratioP2
11935;SDS011;6027;48.576;9.180;2023-09-19T00:02:02;1.50;;;0.90;;
11935;SDS011;6027;48.576;9.180;2023-09-19T00:04:31;1.80;;;1.10;;
11935;SDS011;6027;48.576;9.180;2023-09-19T00:06:58;1.70;;;1.00;;
11935;SDS011;6027;48.576;9.180;2023-09-19T00:09:23;1.25;;;0.85;;
11935;SDS011;6027;48.576;9.180;2023-09-19T00:11:52;2.47;;;1.10;;
11935;SDS011;6027;48.576;9.180;2023-09-19T00:14:18;2.00;;;1.00;;
11935;SDS011;6027;48.576;9.180;2023-09-19T00:16:43;2.22;;;0.90;;
11935;SDS011;6027;48.576;9.180;2023-09-19T00:19:11;1.42;;;0.90;;
11935;SDS011;6027;48.576;9.180;2023-09-19T00:21:37;4.43;;;1.10;;
11935;SDS011;6027;48.576;9.180;2023-09-19T00:24:03;2.25;;;1.13;;
11935;SDS011;6027;48.576;9.180;2023-09-19T00:26:31;2.35;;;0.80;;
11935;SDS011;6027;48.576;9.180;2023-09-19T00:28:57;1.80;;;1.00;;
11935;SDS011;6027;48.576;9.180;2023-09-19T00:31:29;1.77;;;1.05;;
11935;SDS011;6027;48.576;9.180;2023-09-19T00:33:55;1.40;;;1.10;;
11935;SDS011;6027;48.576;9.180;2023-09-19T00:36:25;0.88;;;0.85;;
11935;SDS011;6027;48.576;9.180;2023-09-19T00:38:50;1.35;;;0.98;;
11935;SDS011;6027;48.576;9.180;2023-09-19T00:41:16;1.60;;;1.05;;
11935;SDS011;6027;48.576;9.180;2023-09-19T00:43:42;0.98;;;0.85;;
11935;SDS011;6027;48.576;9.180;2023-09-19T00:46:07;2.00;;;0.98;;
11935;SDS011;6027;48.576;9.180;2023-09-19T00:48:37;2.03;;;1.02;;
11935;SDS011;6027;48.576;9.180;2023-09-19T00:51:06;2.47;;;0.90;;
11935;SDS011;6027;48.576;9.180;2023-09-19T00:53:31;2.35;;;1.20;;
11935;SDS011;6027;48.576;9.180;2023-09-19T00:55:59;0.95;;;0.75;;
11935;SDS011;6027;48.576;9.180;2023-09-19T00:58:25;1.90;;;0.80;;
11935;SDS011;6027;48.576;9.180;2023-09-19T01:00:50;1.85;;;0.90;;
11935;SDS011;6027;48.576;9.180;2023-09-19T01:03:17;2.30;;;1.00;;
11935;SDS011;6027;48.576;9.180;2023-09-19T01:05:43;0.80;;;0.73;;
11935;SDS011;6027;48.576;9.180;2023-09-19T01:08:09;2.60;;;0.90;;
11935;SDS011;6027;48.576;9.180;2023-09-19T01:10:37;2.38;;;1.00;;
11935;SDS011;6027;48.576;9.180;2023-09-19T01:16:08;1.40;;;0.95;;
11935;SDS011;6027;48.576;9.180;2023-09-19T01:18:52;0.80;;;0.80;;
11935;SDS011;6027;48.576;9.180;2023-09-19T01:21:44;2.13;;;0.93;;
11935;SDS011;6027;48.576;9.180;2023-09-19T01:24:22;1.38;;;0.85;;
11935;SDS011;6027;48.576;9.180;2023-09-19T01:29:41;1.23;;;0.90;;
11935;SDS011;6027;48.576;9.180;2023-09-19T01:32:10;0.98;;;0.73;;
11935;SDS011;6027;48.576;9.180;2023-09-19T01:37:14;1.85;;;1.00;;
11935;SDS011;6027;48.576;9.180;2023-09-19T01:39:45;1.23;;;0.77;;
11935;SDS011;6027;48.576;9.180;2023-09-19T01:42:21;1.33;;;0.80;;
11935;SDS011;6027;48.576;9.180;2023-09-19T01:52:34;1.05;;;0.90;;
11935;SDS011;6027;48.576;9.180;2023-09-19T01:55:08;1.23;;;0.88;;
11935;SDS011;6027;48.576;9.180;2023-09-19T02:00:16;2.90;;;0.85;;
11935;SDS011;6027;48.576;9.180;2023-09-19T02:02:54;1.27;;;1.00;;
11935;SDS011;6027;48.576;9.180;2023-09-19T02:05:24;1.60;;;0.80;;
11935;SDS011;6027;48.576;9.180;2023-09-19T02:07:51;1.92;;;1.10;;
11935;SDS011;6027;48.576;9.180;2023-09-19T02:10:18;1.95;;;1.08;;
11935;SDS011;6027;48.576;9.180;2023-09-19T02:12:43;1.05;;;0.80;;
11935;SDS011;6027;48.576;9.180;2023-09-19T02:15:10;1.55;;;1.10;;
11935;SDS011;6027;48.576;9.180;2023-09-19T02:17:35;2.58;;;1.10;;
11935;SDS011;6027;48.576;9.180;2023-09-19T02:20:01;1.42;;;1.00;;
11935;SDS011;6027;48.576;9.180;2023-09-19T02:22:27;3.70;;;1.00;;
11935;SDS011;6027;48.576;9.180;2023-09-19T02:24:53;2.97;;;1.00;;
11935;SDS011;6027;48.576;9.180;2023-09-19T02:27:19;2.22;;;1.00;;
11935;SDS011;6027;48.576;9.180;2023-09-19T02:29:45;2.53;;;1.00;;
11935;SDS011;6027;48.576;9.180;2023-09-19T02:32:10;1.48;;;1.00;;
11935;SDS011;6027;48.576;9.180;2023-09-19T02:34:36;1.38;;;0.93;;
11935;SDS011;6027;48.576;9.180;2023-09-19T02:37:23;2.50;;;1.00;;
11935;SDS011;6027;48.576;9.180;2023-09-19T02:39:48;2.03;;;1.10;;
11935;SDS011;6027;48.576;9.180;2023-09-19T02:42:14;1.35;;;1.17;;
11935;SDS011;6027;48.576;9.180;2023-09-19T02:44:39;2.95;;;1.08;;
11935;SDS011;6027;48.576;9.180;2023-09-19T02:47:05;2.72;;;0.90;;
11935;SDS011;6027;48.576;9.180;2023-09-19T02:49:31;1.20;;;0.88;;
11935;SDS011;6027;48.576;9.180;2023-09-19T02:51:57;2.03;;;0.80;;
11935;SDS011;6027;48.576;9.180;2023-09-19T02:54:24;1.40;;;0.90;;
11935;SDS011;6027;48.576;9.180;2023-09-19T02:56:49;5.20;;;0.93;;
11935;SDS011;6027;48.576;9.180;2023-09-19T02:59:15;3.50;;;1.10;;
11935;SDS011;6027;48.576;9.180;2023-09-19T03:01:43;1.42;;;0.95;;
11935;SDS011;6027;48.576;9.180;2023-09-19T03:04:09;1.23;;;0.98;;
11935;SDS011;6027;48.576;9.180;2023-09-19T03:06:36;1.27;;;0.90;;
11935;SDS011;6027;48.576;9.180;2023-09-19T03:09:03;1.83;;;1.05;;
11935;SDS011;6027;48.576;9.180;2023-09-19T03:11:31;2.30;;;0.98;;
11935;SDS011;6027;48.576;9.180;2023-09-19T03:13:56;1.40;;;1.02;;
11935;SDS011;6027;48.576;9.180;2023-09-19T03:16:23;1.00;;;0.90;;
11935;SDS011;6027;48.576;9.180;2023-09-19T03:18:50;1.70;;;0.90;;
11935;SDS011;6027;48.576;9.180;2023-09-19T03:21:16;1.38;;;1.05;;
11935;SDS011;6027;48.576;9.180;2023-09-19T03:23:42;1.25;;;1.00;;
11935;SDS011;6027;48.576;9.180;2023-09-19T03:26:11;3.22;;;1.00;;
11935;SDS011;6027;48.576;9.180;2023-09-19T03:28:38;1.73;;;1.15;;
11935;SDS011;6027;48.576;9.180;2023-09-19T03:31:04;3.00;;;1.42;;
11935;SDS011;6027;48.576;9.180;2023-09-19T03:33:31;2.20;;;1.08;;
11935;SDS011;6027;48.576;9.180;2023-09-19T03:35:58;1.58;;;1.20;;
11935;SDS011;6027;48.576;9.180;2023-09-19T03:38:24;2.05;;;1.10;;
11935;SDS011;6027;48.576;9.180;2023-09-19T03:40:56;3.63;;;1.30;;
11935;SDS011;6027;48.576;9.180;2023-09-19T03:43:22;3.17;;;1.27;;
11935;SDS011;6027;48.576;9.180;2023-09-19T03:45:47;4.05;;;1.30;;
11935;SDS011;6027;48.576;9.180;2023-09-19T03:48:14;1.67;;;1.25;;
11935;SDS011;6027;48.576;9.180;2023-09-19T03:50:39;2.15;;;1.20;;
11935;SDS011;6027;48.576;9.180;2023-09-19T03:53:05;2.10;;;1.40;;
11935;SDS011;6027;48.576;9.180;2023-09-19T03:55:32;2.45;;;1.10;;
11935;SDS011;6027;48.576;9.180;2023-09-19T03:58:01;4.13;;;1.08;;
11935;SDS011;6027;48.576;9.180;2023-09-19T04:00:27;1.10;;;1.00;;
11935;SDS011;6027;48.576;9.180;2023-09-19T04:02:54;3.53;;;1.17;;
11935;SDS011;6027;48.576;9.180;2023-09-19T04:05:21;1.65;;;0.90;;
11935;SDS011;6027;48.576;9.180;2023-09-19T04:07:47;1.92;;;1.20;;
11935;SDS011;6027;48.576;9.180;2023-09-19T04:10:13;2.75;;;1.25;;
11935;SDS011;6027;48.576;9.180;2023-09-19T04:12:40;3.60;;;1.50;;
11935;SDS011;6027;48.576;9.180;2023-09-19T04:15:09;2.20;;;1.10;;
11935;SDS011;6027;48.576;9.180;2023-09-19T04:17:36;2.45;;;1.40;;
11935;SDS011;6027;48.576;9.180;2023-09-19T04:20:01;2.38;;;1.40;;
11935;SDS011;6027;48.576;9.180;2023-09-19T04:22:30;2.45;;;1.52;;
11935;SDS011;6027;48.576;9.180;2023-09-19T04:24:55;3.85;;;1.23;;
11935;SDS011;6027;48.576;9.180;2023-09-19T04:27:21;2.50;;;1.30;;
11935;SDS011;6027;48.576;9.180;2023-09-19T04:29:48;2.25;;;1.55;;
11935;SDS011;6027;48.576;9.180;2023-09-19T04:32:14;2.70;;;1.48;;
11935;SDS011;6027;48.576;9.180;2023-09-19T04:34:42;2.65;;;1.17;;
11935;SDS011;6027;48.576;9.180;2023-09-19T04:37:08;1.50;;;1.30;;
11935;SDS011;6027;48.576;9.180;2023-09-19T04:39:34;2.42;;;1.38;;
11935;SDS011;6027;48.576;9.180;2023-09-19T04:41:59;2.17;;;1.30;;
11935;SDS011;6027;48.576;9.180;2023-09-19T04:44:25;3.13;;;1.40;;
11935;SDS011;6027;48.576;9.180;2023-09-19T04:46:54;3.28;;;1.20;;
11935;SDS011;6027;48.576;9.180;2023-09-19T04:49:19;1.77;;;1.40;;
11935;SDS011;6027;48.576;9.180;2023-09-19T04:51:45;3.38;;;1.70;;
11935;SDS011;6027;48.576;9.180;2023-09-19T04:54:12;2.00;;;1.50;;
11935;SDS011;6027;48.576;9.180;2023-09-19T04:56:38;2.90;;;1.45;;
11935;SDS011;6027;48.576;9.180;2023-09-19T04:59:05;1.85;;;1.30;;
11935;SDS011;6027;48.576;9.180;2023-09-19T05:01:31;1.70;;;1.40;;
11935;SDS011;6027;48.576;9.180;2023-09-19T05:03:56;3.00;;;1.45;;
11935;SDS011;6027;48.576;9.180;2023-09-19T05:06:23;3.22;;;1.67;;
11935;SDS011;6027;48.576;9.180;2023-09-19T05:08:48;3.70;;;1.30;;
11935;SDS011;6027;48.576;9.180;2023-09-19T05:11:21;1.88;;;1.40;;
11935;SDS011;6027;48.576;9.180;2023-09-19T05:13:47;1.80;;;1.40;;
11935;SDS011;6027;48.576;9.180;2023-09-19T05:16:14;2.15;;;1.30;;
11935;SDS011;6027;48.576;9.180;2023-09-19T05:18:41;2.83;;;1.55;;
11935;SDS011;6027;48.576;9.180;2023-09-19T05:21:07;2.85;;;1.58;;
11935;SDS011;6027;48.576;9.180;2023-09-19T05:23:33;2.38;;;1.50;;
11935;SDS011;6027;48.576;9.180;2023-09-19T05:25:59;2.67;;;1.52;;
11935;SDS011;6027;48.576;9.180;2023-09-19T05:28:25;2.70;;;1.30;;
11935;SDS011;6027;48.576;9.180;2023-09-19T05:30:52;2.58;;;1.42;;
11935;SDS011;6027;48.576;9.180;2023-09-19T05:33:18;1.88;;;1.33;;
11935;SDS011;6027;48.576;9.180;2023-09-19T05:35:44;2.30;;;1.30;;
11935;SDS011;6027;48.576;9.180;2023-09-19T05:38:12;1.80;;;1.13;;
11935;SDS011;6027;48.576;9.180;2023-09-19T05:40:44;2.80;;;1.58;;
11935;SDS011;6027;48.576;9.180;2023-09-19T05:43:10;3.08;;;1.38;;
11935;SDS011;6027;48.576;9.180;2023-09-19T05:45:35;3.00;;;1.35;;
11935;SDS011;6027;48.576;9.180;2023-09-19T05:48:09;2.40;;;1.40;;
11935;SDS011;6027;48.576;9.180;2023-09-19T05:50:41;1.83;;;1.50;;
11935;SDS011;6027;48.576;9.180;2023-09-19T05:53:07;1.98;;;1.40;;
11935;SDS011;6027;48.576;9.180;2023-09-19T05:55:33;3.08;;;1.13;;
11935;SDS011;6027;48.576;9.180;2023-09-19T05:57:59;1.63;;;1.20;;
11935;SDS011;6027;48.576;9.180;2023-09-19T06:00:25;1.83;;;1.30;;
11935;SDS011;6027;48.576;9.180;2023-09-19T06:02:52;2.35;;;1.23;;
11935;SDS011;6027;48.576;9.180;2023-09-19T06:05:19;2.05;;;1.20;;
11935;SDS011;6027;48.576;9.180;2023-09-19T06:07:45;2.95;;;1.40;;
11935;SDS011;6027;48.576;9.180;2023-09-19T06:10:12;2.50;;;1.50;;
11935;SDS011;6027;48.576;9.180;2023-09-19T06:12:38;2.28;;;1.70;;
11935;SDS011;6027;48.576;9.180;2023-09-19T06:15:05;5.18;;;1.33;;
11935;SDS011;6027;48.576;9.180;2023-09-19T06:17:31;2.28;;;1.42;;
11935;SDS011;6027;48.576;9.180;2023-09-19T06:19:57;2.88;;;1.40;;
11935;SDS011;6027;48.576;9.180;2023-09-19T06:22:22;3.50;;;1.50;;
11935;SDS011;6027;48.576;9.180;2023-09-19T06:24:49;2.05;;;1.30;;
11935;SDS011;6027;48.576;9.180;2023-09-19T06:27:15;2.72;;;1.65;;
11935;SDS011;6027;48.576;9.180;2023-09-19T06:29:40;2.05;;;1.10;;
11935;SDS011;6027;48.576;9.180;2023-09-19T06:32:10;3.15;;;1.20;;
11935;SDS011;6027;48.576;9.180;2023-09-19T06:34:36;1.35;;;1.10;;
11935;SDS011;6027;48.576;9.180;2023-09-19T06:37:04;2.95;;;1.40;;
11935;SDS011;6027;48.576;9.180;2023-09-19T06:39:31;1.60;;;1.50;;
11935;SDS011;6027;48.576;9.180;2023-09-19T06:41:57;2.80;;;1.52;;
11935;SDS011;6027;48.576;9.180;2023-09-19T06:44:23;2.63;;;1.52;;
11935;SDS011;6027;48.576;9.180;2023-09-19T06:46:50;2.63;;;1.30;;
11935;SDS011;6027;48.576;9.180;2023-09-19T06:49:16;2.88;;;1.58;;
11935;SDS011;6027;48.576;9.180;2023-09-19T06:51:42;3.10;;;1.70;;
11935;SDS011;6027;48.576;9.180;2023-09-19T06:54:08;2.60;;;1.40;;
11935;SDS011;6027;48.576;9.180;2023-09-19T06:56:35;1.83;;;1.60;;
11935;SDS011;6027;48.576;9.180;2023-09-19T06:59:00;3.15;;;1.80;;
11935;SDS011;6027;48.576;9.180;2023-09-19T07:01:27;5.70;;;3.47;;
11935;SDS011;6027;48.576;9.180;2023-09-19T07:03:53;8.93;;;3.30;;
11935;SDS011;6027;48.576;9.180;2023-09-19T07:06:19;2.58;;;2.38;;
11935;SDS011;6027;48.576;9.180;2023-09-19T07:08:45;2.63;;;1.65;;
11935;SDS011;6027;48.576;9.180;2023-09-19T07:11:10;2.90;;;2.60;;
11935;SDS011;6027;48.576;9.180;2023-09-19T07:13:37;3.58;;;1.90;;
11935;SDS011;6027;48.576;9.180;2023-09-19T07:16:03;7.20;;;3.10;;
11935;SDS011;6027;48.576;9.180;2023-09-19T07:18:29;2.35;;;2.05;;
11935;SDS011;6027;48.576;9.180;2023-09-19T07:20:58;1.95;;;1.55;;
11935;SDS011;6027;48.576;9.180;2023-09-19T07:23:30;5.35;;;1.83;;
11935;SDS011;6027;48.576;9.180;2023-09-19T07:26:00;5.00;;;1.85;;
11935;SDS011;6027;48.576;9.180;2023-09-19T07:28:26;5.53;;;2.10;;
11935;SDS011;6027;48.576;9.180;2023-09-19T07:30:54;2.67;;;1.63;;
11935;SDS011;6027;48.576;9.180;2023-09-19T07:33:20;2.13;;;1.48;;
11935;SDS011;6027;48.576;9.180;2023-09-19T07:35:46;2.55;;;1.38;;
11935;SDS011;6027;48.576;9.180;2023-09-19T07:38:12;1.30;;;1.20;;
11935;SDS011;6027;48.576;9.180;2023-09-19T07:40:38;1.52;;;1.20;;
11935;SDS011;6027;48.576;9.180;2023-09-19T07:43:04;2.17;;;1.40;;
11935;SDS011;6027;48.576;9.180;2023-09-19T07:45:31;1.80;;;1.15;;
11935;SDS011;6027;48.576;9.180;2023-09-19T07:47:58;3.42;;;1.13;;
11935;SDS011;6027;48.576;9.180;2023-09-19T07:50:26;3.65;;;1.70;;
11935;SDS011;6027;48.576;9.180;2023-09-19T07:52:52;2.42;;;1.30;;
11935;SDS011;6027;48.576;9.180;2023-09-19T07:55:18;1.42;;;1.30;;
11935;SDS011;6027;48.576;9.180;2023-09-19T07:57:48;3.10;;;1.60;;
11935;SDS011;6027;48.576;9.180;2023-09-19T08:00:14;3.05;;;1.70;;
11935;SDS011;6027;48.576;9.180;2023-09-19T08:02:40;2.65;;;1.50;;
11935;SDS011;6027;48.576;9.180;2023-09-19T08:05:07;1.83;;;1.30;;
11935;SDS011;6027;48.576;9.180;2023-09-19T08:07:37;1.73;;;1.40;;
11935;SDS011;6027;48.576;9.180;2023-09-19T08:10:04;1.20;;;1.10;;
11935;SDS011;6027;48.576;9.180;2023-09-19T08:12:33;2.38;;;1.23;;
11935;SDS011;6027;48.576;9.180;2023-09-19T08:15:01;2.10;;;1.35;;
11935;SDS011;6027;48.576;9.180;2023-09-19T08:17:34;1.45;;;1.35;;
11935;SDS011;6027;48.576;9.180;2023-09-19T08:20:00;2.25;;;1.17;;
11935;SDS011;6027;48.576;9.180;2023-09-19T08:22:26;1.92;;;1.23;;
11935;SDS011;6027;48.576;9.180;2023-09-19T08:24:52;2.03;;;1.30;;
11935;SDS011;6027;48.576;9.180;2023-09-19T08:27:18;1.20;;;1.00;;
11935;SDS011;6027;48.576;9.180;2023-09-19T08:29:44;2.42;;;1.05;;
11935;SDS011;6027;48.576;9.180;2023-09-19T08:32:11;1.40;;;1.10;;
11935;SDS011;6027;48.576;9.180;2023-09-19T08:34:37;2.97;;;1.30;;
11935;SDS011;6027;48.576;9.180;2023-09-19T08:37:03;1.58;;;1.20;;
11935;SDS011;6027;48.576;9.180;2023-09-19T08:39:29;2.65;;;1.23;;
11935;SDS011;6027;48.576;9.180;2023-09-19T08:41:59;1.50;;;1.20;;
11935;SDS011;6027;48.576;9.180;2023-09-19T08:44:25;1.83;;;1.10;;
11935;SDS011;6027;48.576;9.180;2023-09-19T08:47:00;1.73;;;0.98;;
11935;SDS011;6027;48.576;9.180;2023-09-19T08:49:36;3.67;;;1.20;;
11935;SDS011;6027;48.576;9.180;2023-09-19T08:52:16;1.73;;;1.17;;
11935;SDS011;6027;48.576;9.180;2023-09-19T08:54:46;1.75;;;1.08;;
11935;SDS011;6027;48.576;9.180;2023-09-19T08:57:14;1.45;;;1.00;;
11935;SDS011;6027;48.576;9.180;2023-09-19T08:59:46;2.15;;;1.20;;
11935;SDS011;6027;48.576;9.180;2023-09-19T09:02:15;4.60;;;1.13;;
11935;SDS011;6027;48.576;9.180;2023-09-19T09:04:48;1.33;;;1.08;;
11935;SDS011;6027;48.576;9.180;2023-09-19T09:07:15;1.63;;;1.10;;
11935;SDS011;6027;48.576;9.180;2023-09-19T09:09:42;1.60;;;1.27;;
11935;SDS011;6027;48.576;9.180;2023-09-19T09:12:12;1.58;;;1.10;;
11935;SDS011;6027;48.576;9.180;2023-09-19T09:14:39;1.95;;;1.27;;
11935;SDS011;6027;48.576;9.180;2023-09-19T09:17:06;2.15;;;1.10;;
11935;SDS011;6027;48.576;9.180;2023-09-19T09:19:32;1.20;;;1.10;;
11935;SDS011;6027;48.576;9.180;2023-09-19T09:22:08;1.08;;;0.95;;
11935;SDS011;6027;48.576;9.180;2023-09-19T09:24:38;2.53;;;1.40;;
11935;SDS011;6027;48.576;9.180;2023-09-19T09:27:19;1.83;;;1.20;;
11935;SDS011;6027;48.576;9.180;2023-09-19T09:29:47;1.42;;;1.17;;
11935;SDS011;6027;48.576;9.180;2023-09-19T09:32:20;2.35;;;1.30;;
11935;SDS011;6027;48.576;9.180;2023-09-19T09:34:57;1.15;;;0.93;;
11935;SDS011;6027;48.576;9.180;2023-09-19T09:37:25;1.30;;;1.00;;
11935;SDS011;6027;48.576;9.180;2023-09-19T09:39:56;2.63;;;1.20;;
11935;SDS011;6027;48.576;9.180;2023-09-19T09:42:44;1.58;;;1.20;;
11935;SDS011;6027;48.576;9.180;2023-09-19T09:45:23;2.00;;;1.13;;
11935;SDS011;6027;48.576;9.180;2023-09-19T09:48:09;2.20;;;1.10;;
11935;SDS011;6027;48.576;9.180;2023-09-19T09:50:47;1.98;;;1.13;;
11935;SDS011;6027;48.576;9.180;2023-09-19T09:53:24;2.55;;;1.10;;
11935;SDS011;6027;48.576;9.180;2023-09-19T09:56:07;2.03;;;1.20;;
11935;SDS011;6027;48.576;9.180;2023-09-19T10:01:13;2.10;;;1.23;;
11935;SDS011;6027;48.576;9.180;2023-09-19T10:03:41;2.10;;;1.20;;
11935;SDS011;6027;48.576;9.180;2023-09-19T10:06:18;1.55;;;1.10;;
11935;SDS011;6027;48.576;9.180;2023-09-19T10:09:00;2.92;;;1.25;;
11935;SDS011;6027;48.576;9.180;2023-09-19T10:11:40;1.23;;;1.05;;
11935;SDS011;6027;48.576;9.180;2023-09-19T10:14:08;3.20;;;0.93;;
11935;SDS011;6027;48.576;9.180;2023-09-19T10:16:38;1.63;;;1.30;;
11935;SDS011;6027;48.576;9.180;2023-09-19T10:19:10;1.70;;;1.15;;
11935;SDS011;6027;48.576;9.180;2023-09-19T10:21:41;2.88;;;1.50;;
11935;SDS011;6027;48.576;9.180;2023-09-19T10:24:08;2.00;;;1.13;;
11935;SDS011;6027;48.576;9.180;2023-09-19T10:26:35;2.30;;;1.58;;
11935;SDS011;6027;48.576;9.180;2023-09-19T10:29:01;2.13;;;1.10;;
11935;SDS011;6027;48.576;9.180;2023-09-19T10:31:32;2.67;;;1.02;;
11935;SDS011;6027;48.576;9.180;2023-09-19T10:34:02;1.63;;;1.27;;
11935;SDS011;6027;48.576;9.180;2023-09-19T10:36:28;2.33;;;1.23;;
11935;SDS011;6027;48.576;9.180;2023-09-19T10:39:02;2.63;;;1.20;;
11935;SDS011;6027;48.576;9.180;2023-09-19T10:41:32;3.13;;;1.35;;
11935;SDS011;6027;48.576;9.180;2023-09-19T10:44:03;2.05;;;1.30;;
11935;SDS011;6027;48.576;9.180;2023-09-19T10:46:33;2.00;;;1.08;;
11935;SDS011;6027;48.576;9.180;2023-09-19T10:48:59;1.38;;;1.08;;
11935;SDS011;6027;48.576;9.180;2023-09-19T10:51:28;2.05;;;1.20;;
11935;SDS011;6027;48.576;9.180;2023-09-19T10:56:43;1.10;;;1.00;;
11935;SDS011;6027;48.576;9.180;2023-09-19T10:59:14;4.10;;;1.20;;
11935;SDS011;6027;48.576;9.180;2023-09-19T11:01:47;2.15;;;1.20;;
11935;SDS011;6027;48.576;9.180;2023-09-19T11:04:23;1.23;;;1.02;;
11935;SDS011;6027;48.576;9.180;2023-09-19T11:09:55;2.17;;;1.13;;
11935;SDS011;6027;48.576;9.180;2023-09-19T11:14:57;1.80;;;0.90;;
11935;SDS011;6027;48.576;9.180;2023-09-19T11:17:30;3.80;;;1.48;;
11935;SDS011;6027;48.576;9.180;2023-09-19T11:30:36;1.05;;;0.90;;
11935;SDS011;6027;48.576;9.180;2023-09-19T11:33:24;1.20;;;0.90;;
11935;SDS011;6027;48.576;9.180;2023-09-19T11:43:46;1.30;;;1.10;;
11935;SDS011;6027;48.576;9.180;2023-09-19T11:46:13;2.05;;;1.17;;
11935;SDS011;6027;48.576;9.180;2023-09-19T11:48:42;1.83;;;1.23;;
11935;SDS011;6027;48.576;9.180;2023-09-19T11:51:16;2.03;;;1.27;;
11935;SDS011;6027;48.576;9.180;2023-09-19T11:53:52;1.42;;;0.90;;
11935;SDS011;6027;48.576;9.180;2023-09-19T11:56:20;1.55;;;1.05;;
11935;SDS011;6027;48.576;9.180;2023-09-19T11:58:51;2.17;;;1.25;;
11935;SDS011;6027;48.576;9.180;2023-09-19T12:01:22;5.35;;;1.60;;
11935;SDS011;6027;48.576;9.180;2023-09-19T12:03:53;1.77;;;1.10;;
11935;SDS011;6027;48.576;9.180;2023-09-19T12:06:22;3.90;;;1.10;;
11935;SDS011;6027;48.576;9.180;2023-09-19T12:08:48;1.17;;;0.90;;
11935;SDS011;6027;48.576;9.180;2023-09-19T12:11:16;1.00;;;0.90;;
11935;SDS011;6027;48.576;9.180;2023-09-19T12:13:46;1.02;;;0.90;;
11935;SDS011;6027;48.576;9.180;2023-09-19T12:18:49;1.27;;;0.90;;
11935;SDS011;6027;48.576;9.180;2023-09-19T12:21:29;1.33;;;0.85;;
11935;SDS011;6027;48.576;9.180;2023-09-19T12:24:03;1.70;;;0.90;;
11935;SDS011;6027;48.576;9.180;2023-09-19T12:26:27;1.35;;;0.95;;
11935;SDS011;6027;48.576;9.180;2023-09-19T12:28:54;1.10;;;1.00;;
11935;SDS011;6027;48.576;9.180;2023-09-19T12:31:21;1.92;;;0.85;;
11935;SDS011;6027;48.576;9.180;2023-09-19T12:33:52;1.35;;;0.82;;
11935;SDS011;6027;48.576;9.180;2023-09-19T12:36:22;3.47;;;0.90;;
11935;SDS011;6027;48.576;9.180;2023-09-19T12:38:55;1.20;;;0.70;;
11935;SDS011;6027;48.576;9.180;2023-09-19T12:41:24;1.38;;;1.02;;
11935;SDS011;6027;48.576;9.180;2023-09-19T12:43:51;1.58;;;0.95;;
11935;SDS011;6027;48.576;9.180;2023-09-19T12:46:22;1.00;;;0.90;;
11935;SDS011;6027;48.576;9.180;2023-09-19T12:49:14;1.58;;;0.90;;
11935;SDS011;6027;48.576;9.180;2023-09-19T12:51:45;1.33;;;0.80;;
11935;SDS011;6027;48.576;9.180;2023-09-19T12:54:12;1.30;;;0.80;;
11935;SDS011;6027;48.576;9.180;2023-09-19T12:56:41;1.27;;;0.90;;
11935;SDS011;6027;48.576;9.180;2023-09-19T12:59:12;1.60;;;0.80;;
11935;SDS011;6027;48.576;9.180;2023-09-19T13:01:39;1.48;;;1.00;;
11935;SDS011;6027;48.576;9.180;2023-09-19T13:04:17;1.40;;;1.00;;
11935;SDS011;6027;48.576;9.180;2023-09-19T13:06:45;1.00;;;0.90;;
11935;SDS011;6027;48.576;9.180;2023-09-19T13:09:12;1.42;;;1.00;;
11935;SDS011;6027;48.576;9.180;2023-09-19T13:11:39;1.50;;;1.10;;
11935;SDS011;6027;48.576;9.180;2023-09-19T13:19:35;1.92;;;1.00;;
11935;SDS011;6027;48.576;9.180;2023-09-19T13:22:00;2.35;;;1.10;;
11935;SDS011;6027;48.576;9.180;2023-09-19T13:24:26;2.17;;;1.00;;
11935;SDS011;6027;48.576;9.180;2023-09-19T13:26:53;4.20;;;1.00;;
11935;SDS011;6027;48.576;9.180;2023-09-19T13:29:19;3.13;;;0.95;;
11935;SDS011;6027;48.576;9.180;2023-09-19T13:31:51;3.38;;;1.35;;
11935;SDS011;6027;48.576;9.180;2023-09-19T13:34:20;1.20;;;0.73;;
11935;SDS011;6027;48.576;9.180;2023-09-19T13:36:46;1.08;;;0.80;;
11935;SDS011;6027;48.576;9.180;2023-09-19T13:39:14;1.42;;;1.00;;
11935;SDS011;6027;48.576;9.180;2023-09-19T13:41:46;3.17;;;1.00;;
11935;SDS011;6027;48.576;9.180;2023-09-19T13:44:13;2.45;;;1.10;;
11935;SDS011;6027;48.576;9.180;2023-09-19T13:46:39;3.20;;;1.35;;
11935;SDS011;6027;48.576;9.180;2023-09-19T13:49:05;0.90;;;0.90;;
11935;SDS011;6027;48.576;9.180;2023-09-19T13:51:31;1.35;;;0.98;;
11935;SDS011;6027;48.576;9.180;2023-09-19T13:53:57;1.42;;;1.00;;
11935;SDS011;6027;48.576;9.180;2023-09-19T13:56:24;3.35;;;1.02;;
11935;SDS011;6027;48.576;9.180;2023-09-19T13:58:53;2.13;;;1.08;;
11935;SDS011;6027;48.576;9.180;2023-09-19T14:01:19;2.35;;;1.10;;
11935;SDS011;6027;48.576;9.180;2023-09-19T14:03:45;1.10;;;1.00;;
11935;SDS011;6027;48.576;9.180;2023-09-19T14:06:15;1.92;;;1.00;;
11935;SDS011;6027;48.576;9.180;2023-09-19T14:08:41;0.95;;;0.80;;
11935;SDS011;6027;48.576;9.180;2023-09-19T14:11:07;1.52;;;1.10;;
11935;SDS011;6027;48.576;9.180;2023-09-19T14:13:33;1.23;;;1.00;;
11935;SDS011;6027;48.576;9.180;2023-09-19T14:16:03;2.13;;;1.08;;
11935;SDS011;6027;48.576;9.180;2023-09-19T14:18:32;2.13;;;0.90;;
11935;SDS011;6027;48.576;9.180;2023-09-19T14:20:58;2.92;;;1.02;;
11935;SDS011;6027;48.576;9.180;2023-09-19T14:23:28;2.53;;;1.25;;
11935;SDS011;6027;48.576;9.180;2023-09-19T14:25:53;1.45;;;0.82;;
11935;SDS011;6027;48.576;9.180;2023-09-19T14:28:19;1.55;;;1.00;;
11935;SDS011;6027;48.576;9.180;2023-09-19T14:30:44;2.75;;;0.98;;
11935;SDS011;6027;48.576;9.180;2023-09-19T14:33:11;1.55;;;0.95;;
11935;SDS011;6027;48.576;9.180;2023-09-19T14:35:37;1.33;;;1.00;;
11935;SDS011;6027;48.576;9.180;2023-09-19T14:38:03;1.20;;;0.95;;
11935;SDS011;6027;48.576;9.180;2023-09-19T14:40:29;1.27;;;0.90;;
11935;SDS011;6027;48.576;9.180;2023-09-19T14:42:54;3.42;;;0.80;;
11935;SDS011;6027;48.576;9.180;2023-09-19T14:45:20;1.30;;;0.82;;
11935;SDS011;6027;48.576;9.180;2023-09-19T14:47:45;0.95;;;0.90;;
11935;SDS011;6027;48.576;9.180;2023-09-19T14:50:12;1.20;;;0.90;;
11935;SDS011;6027;48.576;9.180;2023-09-19T14:52:38;1.77;;;1.20;;
11935;SDS011;6027;48.576;9.180;2023-09-19T14:55:05;2.25;;;0.80;;
11935;SDS011;6027;48.576;9.180;2023-09-19T14:57:31;1.80;;;1.00;;
11935;SDS011;6027;48.576;9.180;2023-09-19T14:59:57;1.95;;;1.08;;
11935;SDS011;6027;48.576;9.180;2023-09-19T15:02:23;1.67;;;1.00;;
11935;SDS011;6027;48.576;9.180;2023-09-19T15:04:49;1.35;;;1.00;;
11935;SDS011;6027;48.576;9.180;2023-09-19T15:07:16;1.70;;;1.00;;
11935;SDS011;6027;48.576;9.180;2023-09-19T15:09:42;1.10;;;1.00;;
11935;SDS011;6027;48.576;9.180;2023-09-19T15:12:09;1.23;;;0.90;;
11935;SDS011;6027;48.576;9.180;2023-09-19T15:14:39;1.25;;;1.00;;
11935;SDS011;6027;48.576;9.180;2023-09-19T15:17:05;0.95;;;0.80;;
11935;SDS011;6027;48.576;9.180;2023-09-19T15:19:31;1.27;;;0.93;;
11935;SDS011;6027;48.576;9.180;2023-09-19T15:21:57;2.03;;;1.17;;
11935;SDS011;6027;48.576;9.180;2023-09-19T15:24:23;5.00;;;1.10;;
11935;SDS011;6027;48.576;9.180;2023-09-19T15:26:52;1.08;;;0.82;;
11935;SDS011;6027;48.576;9.180;2023-09-19T15:29:17;0.85;;;0.80;;
11935;SDS011;6027;48.576;9.180;2023-09-19T15:31:43;0.80;;;0.80;;
11935;SDS011;6027;48.576;9.180;2023-09-19T15:34:09;3.05;;;0.98;;
11935;SDS011;6027;48.576;9.180;2023-09-19T15:36:35;2.35;;;1.10;;
11935;SDS011;6027;48.576;9.180;2023-09-19T15:39:04;0.85;;;0.85;;
11935;SDS011;6027;48.576;9.180;2023-09-19T15:41:33;0.93;;;0.82;;
11935;SDS011;6027;48.576;9.180;2023-09-19T15:44:00;1.75;;;1.00;;
11935;SDS011;6027;48.576;9.180;2023-09-19T15:46:30;2.05;;;1.10;;
11935;SDS011;6027;48.576;9.180;2023-09-19T15:48:58;1.00;;;0.90;;
11935;SDS011;6027;48.576;9.180;2023-09-19T15:51:25;1.00;;;0.90;;
11935;SDS011;6027;48.576;9.180;2023-09-19T15:53:53;1.45;;;0.90;;
11935;SDS011;6027;48.576;9.180;2023-09-19T15:56:21;1.42;;;1.00;;
11935;SDS011;6027;48.576;9.180;2023-09-19T15:58:48;1.10;;;1.00;;
11935;SDS011;6027;48.576;9.180;2023-09-19T16:01:17;1.02;;;0.90;;
11935;SDS011;6027;48.576;9.180;2023-09-19T16:03:45;0.93;;;0.90;;